createdAt,value
2016-07-29T00:00:31.929Z,1011.83
2016-07-29T00:01:31.945Z,1011.81
2016-07-29T00:02:31.971Z,1011.85
2016-07-29T00:03:31.998Z,1011.82
2016-07-29T00:04:32.024Z,1011.82
2016-07-29T00:05:32.050Z,1011.77
2016-07-29T00:06:32.077Z,1011.78
2016-07-29T00:07:32.102Z,1011.81
2016-07-29T00:08:32.129Z,1011.8
2016-07-29T00:09:32.153Z,1011.76
2016-07-29T00:10:32.181Z,1011.78
2016-07-29T00:11:32.208Z,1011.76
2016-07-29T00:12:32.232Z,1011.7
2016-07-29T00:13:32.260Z,1011.68
2016-07-29T00:14:32.286Z,1011.71
2016-07-29T00:15:32.313Z,1011.7
2016-07-29T00:16:32.337Z,1011.67
2016-07-29T00:17:32.363Z,1011.59
2016-07-29T00:18:32.390Z,1011.61
2016-07-29T00:19:32.417Z,1011.62
2016-07-29T00:20:32.442Z,1011.63
2016-07-29T00:21:32.469Z,1011.62
2016-07-29T00:22:32.495Z,1011.66
2016-07-29T00:23:32.521Z,1011.64
2016-07-29T00:24:32.548Z,1011.65
2016-07-29T00:25:32.574Z,1011.66
2016-07-29T00:26:32.600Z,1011.63
2016-07-29T00:27:32.625Z,1011.58
2016-07-29T00:28:32.652Z,1011.63
2016-07-29T00:29:32.678Z,1011.63
2016-07-29T00:30:32.704Z,1011.62
2016-07-29T00:31:32.730Z,1011.6
2016-07-29T00:32:32.756Z,1011.58
2016-07-29T00:33:32.782Z,1011.58
2016-07-29T00:34:32.808Z,1011.54
2016-07-29T00:35:32.834Z,1011.58
2016-07-29T00:36:32.861Z,1011.55
2016-07-29T00:37:32.887Z,1011.54
2016-07-29T00:38:32.913Z,1011.51
2016-07-29T00:39:32.990Z,1011.48
2016-07-29T00:40:32.966Z,1011.43
2016-07-29T00:41:32.993Z,1011.42
2016-07-29T00:42:33.019Z,1011.45
2016-07-29T00:43:33.044Z,1011.39
2016-07-29T00:44:33.071Z,1011.43
2016-07-29T00:45:33.096Z,1011.41
2016-07-29T00:46:33.123Z,1011.39
2016-07-29T00:47:33.152Z,1011.38
2016-07-29T00:48:33.175Z,1011.41
2016-07-29T00:49:33.201Z,1011.35
2016-07-29T00:50:33.227Z,1011.35
2016-07-29T00:51:33.254Z,1011.32
2016-07-29T00:52:33.280Z,1011.35
2016-07-29T00:53:33.306Z,1011.35
2016-07-29T00:54:33.333Z,1011.33
2016-07-29T00:55:33.360Z,1011.29
2016-07-29T00:56:33.385Z,1011.29
2016-07-29T00:57:33.411Z,1011.26
2016-07-29T00:58:33.436Z,1011.26
2016-07-29T00:59:33.464Z,1011.25
2016-07-29T01:00:33.489Z,1011.24
2016-07-29T01:01:33.516Z,1011.22
2016-07-29T01:02:33.542Z,1011.23
2016-07-29T01:03:33.567Z,1011.17
2016-07-29T01:04:33.594Z,1011.21
2016-07-29T01:05:33.621Z,1011.23
2016-07-29T01:06:33.646Z,1011.18
2016-07-29T01:07:33.671Z,1011.17
2016-07-29T01:08:33.699Z,1011.16
2016-07-29T01:09:33.725Z,1011.16
2016-07-29T01:10:33.750Z,1011.18
2016-07-29T01:11:33.777Z,1011.15
2016-07-29T01:12:33.802Z,1011.16
2016-07-29T01:13:33.829Z,1011.16
2016-07-29T01:14:33.854Z,1011.14
2016-07-29T01:15:33.880Z,1011.16
2016-07-29T01:16:33.907Z,1011.11
2016-07-29T01:17:33.933Z,1011.11
2016-07-29T01:18:33.959Z,1011.14
2016-07-29T01:19:33.985Z,1011.13
2016-07-29T01:20:34.011Z,1011.15
2016-07-29T01:21:34.037Z,1011.15
2016-07-29T01:22:34.063Z,1011.13
2016-07-29T01:23:34.089Z,1011.11
2016-07-29T01:24:34.116Z,1011.08
2016-07-29T01:25:34.141Z,1011.09
2016-07-29T01:26:34.167Z,1011.12
2016-07-29T01:27:34.193Z,1011.07
2016-07-29T01:28:34.220Z,1011.05
2016-07-29T01:29:34.245Z,1011.04
2016-07-29T01:30:34.272Z,1011.01
2016-07-29T01:31:34.297Z,1010.97
2016-07-29T01:32:34.324Z,1010.96
2016-07-29T01:33:34.350Z,1011.01
2016-07-29T01:34:34.375Z,1010.97
2016-07-29T01:35:34.402Z,1010.95
2016-07-29T01:36:34.427Z,1010.92
2016-07-29T01:37:34.454Z,1010.9
2016-07-29T01:38:34.480Z,1010.9
2016-07-29T01:39:35.707Z,1010.91
2016-07-29T01:40:34.532Z,1010.86
2016-07-29T01:41:34.558Z,1010.89
2016-07-29T01:42:34.585Z,1010.89
2016-07-29T01:43:34.611Z,1010.89
2016-07-29T01:44:34.636Z,1010.94
2016-07-29T01:45:34.663Z,1010.96
2016-07-29T01:46:34.689Z,1010.9
2016-07-29T01:47:34.715Z,1010.97
2016-07-29T01:48:34.741Z,1010.95
2016-07-29T01:49:34.767Z,1010.94
2016-07-29T01:50:34.793Z,1010.91
2016-07-29T01:51:34.818Z,1010.91
2016-07-29T01:52:34.846Z,1010.9
2016-07-29T01:53:34.871Z,1010.87
2016-07-29T01:54:34.897Z,1010.86
2016-07-29T01:55:34.922Z,1010.89
2016-07-29T01:56:34.948Z,1010.85
2016-07-29T01:57:34.974Z,1010.84
2016-07-29T01:58:35.000Z,1010.84
2016-07-29T01:59:35.027Z,1010.86
2016-07-29T02:00:35.053Z,1010.85
2016-07-29T02:01:35.079Z,1010.81
2016-07-29T02:02:35.105Z,1010.81
2016-07-29T02:03:35.132Z,1010.77
2016-07-29T02:04:35.157Z,1010.84
2016-07-29T02:05:35.183Z,1010.83
2016-07-29T02:06:35.208Z,1010.87
2016-07-29T02:07:35.235Z,1010.86
2016-07-29T02:08:35.262Z,1010.85
2016-07-29T02:09:35.288Z,1010.86
2016-07-29T02:10:35.313Z,1010.85
2016-07-29T02:11:35.340Z,1010.88
2016-07-29T02:12:35.366Z,1010.91
2016-07-29T02:13:35.391Z,1010.94
2016-07-29T02:14:35.418Z,1010.9
2016-07-29T02:15:35.444Z,1010.91
2016-07-29T02:16:35.471Z,1010.94
2016-07-29T02:17:35.495Z,1010.93
2016-07-29T02:18:35.523Z,1010.97
2016-07-29T02:19:35.548Z,1010.96
2016-07-29T02:20:35.574Z,1010.94
2016-07-29T02:21:35.601Z,1010.91
2016-07-29T02:22:35.627Z,1010.93
2016-07-29T02:23:35.660Z,1010.91
2016-07-29T02:24:35.678Z,1010.88
2016-07-29T02:25:35.705Z,1010.9
2016-07-29T02:26:35.731Z,1010.91
2016-07-29T02:27:35.758Z,1010.92
2016-07-29T02:28:35.783Z,1010.88
2016-07-29T02:29:35.810Z,1010.91
2016-07-29T02:30:35.837Z,1010.87
2016-07-29T02:31:35.861Z,1010.87
2016-07-29T02:32:35.888Z,1010.85
2016-07-29T02:33:35.914Z,1010.91
2016-07-29T02:34:35.941Z,1010.84
2016-07-29T02:35:35.967Z,1010.85
2016-07-29T02:36:35.996Z,1010.79
2016-07-29T02:37:36.019Z,1010.8
2016-07-29T02:38:36.044Z,1010.74
2016-07-29T02:39:36.071Z,1010.76
2016-07-29T02:40:36.096Z,1010.79
2016-07-29T02:41:36.123Z,1010.74
2016-07-29T02:42:36.149Z,1010.79
2016-07-29T02:43:36.175Z,1010.78
2016-07-29T02:44:36.201Z,1010.76
2016-07-29T02:45:36.227Z,1010.73
2016-07-29T02:46:36.253Z,1010.69
2016-07-29T02:47:36.279Z,1010.64
2016-07-29T02:48:36.306Z,1010.68
2016-07-29T02:49:36.331Z,1010.65
2016-07-29T02:50:36.357Z,1010.64
2016-07-29T02:51:36.382Z,1010.65
2016-07-29T02:52:36.409Z,1010.64
2016-07-29T02:53:36.435Z,1010.7
2016-07-29T02:54:36.461Z,1010.7
2016-07-29T02:55:36.488Z,1010.65
2016-07-29T02:56:36.514Z,1010.67
2016-07-29T02:57:36.539Z,1010.6
2016-07-29T02:58:36.566Z,1010.61
2016-07-29T02:59:36.592Z,1010.67
2016-07-29T03:00:36.617Z,1010.6
2016-07-29T03:01:36.643Z,1010.61
2016-07-29T03:02:36.670Z,1010.61
2016-07-29T03:03:36.696Z,1010.55
2016-07-29T03:04:36.721Z,1010.55
2016-07-29T03:05:36.748Z,1010.5
2016-07-29T03:06:36.774Z,1010.47
2016-07-29T03:07:36.800Z,1010.52
2016-07-29T03:08:36.826Z,1010.52
2016-07-29T03:09:36.852Z,1010.49
2016-07-29T03:10:36.878Z,1010.5
2016-07-29T03:11:36.904Z,1010.48
2016-07-29T03:12:36.930Z,1010.47
2016-07-29T03:13:36.956Z,1010.42
2016-07-29T03:14:36.982Z,1010.44
2016-07-29T03:15:37.008Z,1010.45
2016-07-29T03:16:37.034Z,1010.47
2016-07-29T03:17:37.061Z,1010.45
2016-07-29T03:18:37.086Z,1010.45
2016-07-29T03:19:37.112Z,1010.45
2016-07-29T03:20:37.138Z,1010.46
2016-07-29T03:21:37.165Z,1010.49
2016-07-29T03:22:37.190Z,1010.48
2016-07-29T03:23:37.215Z,1010.48
2016-07-29T03:24:37.242Z,1010.47
2016-07-29T03:25:37.269Z,1010.46
2016-07-29T03:26:37.294Z,1010.42
2016-07-29T03:27:37.320Z,1010.39
2016-07-29T03:28:37.347Z,1010.43
2016-07-29T03:29:37.374Z,1010.41
2016-07-29T03:30:37.399Z,1010.46
2016-07-29T03:31:37.425Z,1010.47
2016-07-29T03:33:37.477Z,1010.49
2016-07-29T03:34:37.506Z,1010.48
2016-07-29T03:35:37.528Z,1010.47
2016-07-29T03:36:37.557Z,1010.42
2016-07-29T03:37:37.579Z,1010.42
2016-07-29T03:38:37.606Z,1010.44
2016-07-29T03:39:37.633Z,1010.42
2016-07-29T03:40:37.659Z,1010.42
2016-07-29T03:41:37.685Z,1010.4
2016-07-29T03:42:37.710Z,1010.4
2016-07-29T03:43:37.737Z,1010.37
2016-07-29T03:44:37.762Z,1010.4
2016-07-29T03:45:37.788Z,1010.38
2016-07-29T03:46:37.815Z,1010.43
2016-07-29T03:48:37.867Z,1010.36
2016-07-29T03:49:37.893Z,1010.36
2016-07-29T03:50:37.920Z,1010.43
2016-07-29T03:51:37.945Z,1010.38
2016-07-29T03:52:37.971Z,1010.43
2016-07-29T03:53:37.998Z,1010.39
2016-07-29T03:54:38.023Z,1010.36
2016-07-29T03:55:38.049Z,1010.34
2016-07-29T03:56:38.075Z,1010.37
2016-07-29T03:57:38.102Z,1010.37
2016-07-29T03:58:38.128Z,1010.37
2016-07-29T03:59:38.154Z,1010.34
2016-07-29T04:00:38.180Z,1010.31
2016-07-29T04:01:38.206Z,1010.29
2016-07-29T04:03:38.259Z,1010.3
2016-07-29T04:04:38.285Z,1010.3
2016-07-29T04:05:38.311Z,1010.29
2016-07-29T04:06:38.336Z,1010.29
2016-07-29T04:07:38.364Z,1010.24
2016-07-29T04:08:38.389Z,1010.29
2016-07-29T04:09:38.415Z,1010.24
2016-07-29T04:10:38.440Z,1010.3
2016-07-29T04:11:38.467Z,1010.32
2016-07-29T04:12:38.493Z,1010.3
2016-07-29T04:13:38.518Z,1010.29
2016-07-29T04:14:38.544Z,1010.28
2016-07-29T04:15:38.571Z,1010.26
2016-07-29T04:16:38.598Z,1010.3
2016-07-29T04:17:38.623Z,1010.29
2016-07-29T04:18:38.649Z,1010.3
2016-07-29T04:19:38.675Z,1010.29
2016-07-29T04:20:38.702Z,1010.27
2016-07-29T04:21:38.727Z,1010.29
2016-07-29T04:22:38.753Z,1010.25
2016-07-29T04:23:38.779Z,1010.27
2016-07-29T04:24:38.804Z,1010.26
2016-07-29T04:25:38.831Z,1010.25
2016-07-29T04:26:38.857Z,1010.2
2016-07-29T04:27:38.883Z,1010.19
2016-07-29T04:28:38.908Z,1010.22
2016-07-29T04:29:38.935Z,1010.19
2016-07-29T04:30:38.961Z,1010.19
2016-07-29T04:31:38.987Z,1010.22
2016-07-29T04:32:39.013Z,1010.22
2016-07-29T04:33:39.039Z,1010.25
2016-07-29T04:34:39.065Z,1010.19
2016-07-29T04:35:39.091Z,1010.22
2016-07-29T04:36:39.118Z,1010.18
2016-07-29T04:37:39.143Z,1010.21
2016-07-29T04:38:39.169Z,1010.19
2016-07-29T04:39:39.195Z,1010.13
2016-07-29T04:40:39.221Z,1010.17
2016-07-29T04:41:39.248Z,1010.18
2016-07-29T04:42:39.275Z,1010.16
2016-07-29T04:43:39.299Z,1010.17
2016-07-29T04:44:39.326Z,1010.16
2016-07-29T04:45:39.357Z,1010.15
2016-07-29T04:46:39.378Z,1010.11
2016-07-29T04:47:39.404Z,1010.13
2016-07-29T04:48:39.430Z,1010.09
2016-07-29T04:49:39.456Z,1010.09
2016-07-29T04:50:39.482Z,1010.09
2016-07-29T04:51:39.508Z,1010.07
2016-07-29T04:52:39.535Z,1010.09
2016-07-29T04:53:39.561Z,1010.12
2016-07-29T04:54:39.586Z,1010.08
2016-07-29T04:55:39.613Z,1010.08
2016-07-29T04:56:39.639Z,1010.08
2016-07-29T04:57:39.664Z,1010.13
2016-07-29T04:58:39.691Z,1010.17
2016-07-29T04:59:39.717Z,1010.17
2016-07-29T05:00:39.743Z,1010.16
2016-07-29T05:01:39.768Z,1010.16
2016-07-29T05:02:39.795Z,1010.16
2016-07-29T05:03:39.821Z,1010.14
2016-07-29T05:04:39.847Z,1010.15
2016-07-29T05:05:39.873Z,1010.16
2016-07-29T05:06:39.899Z,1010.21
2016-07-29T05:07:39.930Z,1010.2
2016-07-29T05:08:39.951Z,1010.19
2016-07-29T05:09:39.977Z,1010.2
2016-07-29T05:10:40.004Z,1010.19
2016-07-29T05:11:40.031Z,1010.22
2016-07-29T05:12:40.056Z,1010.19
2016-07-29T05:13:40.082Z,1010.18
2016-07-29T05:14:40.115Z,1010.16
2016-07-29T05:15:40.135Z,1010.18
2016-07-29T05:16:40.160Z,1010.18
2016-07-29T05:17:40.186Z,1010.17
2016-07-29T05:18:40.212Z,1010.15
2016-07-29T05:19:40.237Z,1010.13
2016-07-29T05:20:40.466Z,1010.13
2016-07-29T05:21:40.291Z,1010.15
2016-07-29T05:22:40.317Z,1010.13
2016-07-29T05:23:40.342Z,1010.16
2016-07-29T05:24:40.369Z,1010.15
2016-07-29T05:25:40.396Z,1010.14
2016-07-29T05:26:40.422Z,1010.17
2016-07-29T05:27:40.446Z,1010.19
2016-07-29T05:28:40.473Z,1010.18
2016-07-29T05:29:40.500Z,1010.17
2016-07-29T05:30:40.525Z,1010.22
2016-07-29T05:31:40.551Z,1010.15
2016-07-29T05:32:40.577Z,1010.13
2016-07-29T05:33:40.604Z,1010.16
2016-07-29T05:34:40.629Z,1010.15
2016-07-29T05:35:40.656Z,1010.19
2016-07-29T05:36:40.682Z,1010.15
2016-07-29T05:37:40.709Z,1010.2
2016-07-29T05:38:40.734Z,1010.16
2016-07-29T05:39:40.761Z,1010.16
2016-07-29T05:40:40.787Z,1010.21
2016-07-29T05:41:40.812Z,1010.21
2016-07-29T05:42:40.839Z,1010.22
2016-07-29T05:43:40.865Z,1010.23
2016-07-29T05:44:40.892Z,1010.22
2016-07-29T05:45:40.917Z,1010.19
2016-07-29T05:46:40.944Z,1010.22
2016-07-29T05:47:40.972Z,1010.24
2016-07-29T05:48:40.995Z,1010.22
2016-07-29T05:49:41.023Z,1010.22
2016-07-29T05:50:41.049Z,1010.22
2016-07-29T05:51:41.075Z,1010.19
2016-07-29T05:52:41.100Z,1010.21
2016-07-29T05:53:41.126Z,1010.2
2016-07-29T05:54:41.153Z,1010.23
2016-07-29T05:55:41.179Z,1010.21
2016-07-29T05:56:41.205Z,1010.18
2016-07-29T05:57:41.232Z,1010.19
2016-07-29T05:58:41.258Z,1010.23
2016-07-29T05:59:41.283Z,1010.24
2016-07-29T06:00:41.309Z,1010.23
2016-07-29T06:01:41.335Z,1010.24
2016-07-29T06:02:41.362Z,1010.22
2016-07-29T06:03:41.388Z,1010.21
2016-07-29T06:04:41.413Z,1010.21
2016-07-29T06:05:41.440Z,1010.22
2016-07-29T06:06:41.467Z,1010.21
2016-07-29T06:07:41.492Z,1010.22
2016-07-29T06:08:41.519Z,1010.21
2016-07-29T06:09:41.545Z,1010.15
2016-07-29T06:10:41.570Z,1010.2
2016-07-29T06:11:41.597Z,1010.16
2016-07-29T06:12:41.623Z,1010.19
2016-07-29T06:13:41.649Z,1010.16
2016-07-29T06:14:41.675Z,1010.18
2016-07-29T06:15:41.702Z,1010.12
2016-07-29T06:16:41.728Z,1010.12
2016-07-29T06:17:41.754Z,1010.11
2016-07-29T06:18:41.779Z,1010.1
2016-07-29T06:19:41.806Z,1010.08
2016-07-29T06:20:41.834Z,1010.08
2016-07-29T06:21:41.858Z,1010.04
2016-07-29T06:22:41.885Z,1010.02
2016-07-29T06:23:41.912Z,1010.02
2016-07-29T06:24:41.938Z,1010.02
2016-07-29T06:25:41.964Z,1010.05
2016-07-29T06:26:41.991Z,1010.08
2016-07-29T06:27:42.017Z,1010.01
2016-07-29T06:28:42.044Z,1010.05
2016-07-29T06:29:42.076Z,1010.05
2016-07-29T06:30:42.096Z,1010.07
2016-07-29T06:31:42.122Z,1010.11
2016-07-29T06:32:42.148Z,1010.05
2016-07-29T06:34:42.201Z,1010.06
2016-07-29T06:35:42.228Z,1010.1
2016-07-29T06:36:42.254Z,1010.03
2016-07-29T06:37:42.280Z,1010.05
2016-07-29T06:38:42.308Z,1010.02
2016-07-29T06:39:42.334Z,1010.07
2016-07-29T06:40:42.360Z,1010.05
2016-07-29T06:41:42.386Z,1010.02
2016-07-29T06:42:42.413Z,1010.08
2016-07-29T06:43:42.439Z,1010.04
2016-07-29T06:44:42.466Z,1010.02
2016-07-29T06:45:42.493Z,1010.05
2016-07-29T06:46:42.520Z,1010.02
2016-07-29T06:47:42.548Z,1009.99
2016-07-29T06:49:38.849Z,1009.93
2016-07-29T06:50:38.875Z,1009.95
2016-07-29T06:51:38.902Z,1009.95
2016-07-29T06:52:38.928Z,1009.95
2016-07-29T06:53:38.956Z,1009.97
2016-07-29T06:54:38.982Z,1009.93
2016-07-29T06:55:39.010Z,1009.97
2016-07-29T06:56:39.037Z,1009.91
2016-07-29T06:57:39.065Z,1009.88
2016-07-29T06:58:39.092Z,1009.93
2016-07-29T06:59:39.119Z,1009.91
2016-07-29T07:00:39.147Z,1009.9
2016-07-29T07:01:39.175Z,1009.93
2016-07-29T07:02:39.202Z,1009.89
2016-07-29T07:03:39.230Z,1009.9
2016-07-29T07:04:39.259Z,1009.9
2016-07-29T07:05:39.286Z,1009.92
2016-07-29T07:06:39.314Z,1009.95
2016-07-29T07:07:39.341Z,1009.97
2016-07-29T07:08:39.368Z,1009.97
2016-07-29T07:09:39.397Z,1009.97
2016-07-29T07:10:39.425Z,1009.96
2016-07-29T07:11:39.452Z,1009.93
2016-07-29T07:12:39.480Z,1009.98
2016-07-29T07:13:39.509Z,1009.95
2016-07-29T07:14:39.535Z,1009.97
2016-07-29T07:15:39.564Z,1009.99
2016-07-29T07:16:39.591Z,1010
2016-07-29T07:17:39.620Z,1010
2016-07-29T07:18:39.647Z,1010
2016-07-29T07:19:39.675Z,1009.98
2016-07-29T07:20:39.704Z,1010.01
2016-07-29T07:21:39.731Z,1009.99
2016-07-29T07:22:39.759Z,1010.02
2016-07-29T07:23:39.788Z,1010.03
2016-07-29T07:24:39.816Z,1010.01
2016-07-29T07:25:39.842Z,1010.02
2016-07-29T07:26:39.872Z,1010.01
2016-07-29T07:27:39.899Z,1010.03
2016-07-29T07:28:39.927Z,1010.02
2016-07-29T07:29:39.954Z,1010
2016-07-29T07:30:39.983Z,1009.99
2016-07-29T07:31:40.011Z,1009.98
2016-07-29T07:32:40.039Z,1009.99
2016-07-29T07:33:40.069Z,1010.01
2016-07-29T07:34:40.095Z,1009.96
2016-07-29T07:35:40.124Z,1009.96
2016-07-29T07:36:40.151Z,1009.95
2016-07-29T07:37:40.179Z,1009.97
2016-07-29T07:38:40.208Z,1009.96
2016-07-29T07:39:40.237Z,1009.96
2016-07-29T07:40:40.264Z,1009.97
2016-07-29T07:41:40.292Z,1009.94
2016-07-29T07:42:40.319Z,1009.97
2016-07-29T07:43:40.348Z,1009.97
2016-07-29T07:44:40.380Z,1009.97
2016-07-29T07:45:40.404Z,1009.98
2016-07-29T07:46:40.433Z,1010.01
2016-07-29T07:47:40.460Z,1009.99
2016-07-29T07:48:40.488Z,1010
2016-07-29T07:49:40.517Z,1009.98
2016-07-29T07:50:40.545Z,1010.03
2016-07-29T07:51:40.573Z,1010.03
2016-07-29T07:52:40.601Z,1010
2016-07-29T07:53:40.630Z,1010.03
2016-07-29T07:54:40.660Z,1010.03
2016-07-29T07:55:40.696Z,1010.03
2016-07-29T07:56:40.714Z,1010.01
2016-07-29T07:57:40.742Z,1010.06
2016-07-29T07:58:40.770Z,1010.05
2016-07-29T07:59:40.798Z,1009.99
2016-07-29T08:00:40.827Z,1010.04
2016-07-29T08:01:40.855Z,1010.04
2016-07-29T08:02:40.881Z,1010.04
2016-07-29T08:03:40.910Z,1010.05
2016-07-29T08:04:40.941Z,1010.09
2016-07-29T08:05:40.966Z,1010.09
2016-07-29T08:06:40.995Z,1010.07
2016-07-29T08:07:41.024Z,1010.12
2016-07-29T08:08:41.053Z,1010.07
2016-07-29T08:09:41.079Z,1010.03
2016-07-29T08:10:41.108Z,1010.06
2016-07-29T08:11:41.137Z,1010.06
2016-07-29T08:12:41.170Z,1010.02
2016-07-29T08:13:41.193Z,1010.04
2016-07-29T08:14:41.221Z,1010.03
2016-07-29T08:15:41.251Z,1010.09
2016-07-29T08:16:41.278Z,1010.05
2016-07-29T08:17:41.307Z,1010.08
2016-07-29T08:18:41.335Z,1010.05
2016-07-29T08:19:41.364Z,1010.09
2016-07-29T08:20:41.391Z,1010.07
2016-07-29T08:21:41.420Z,1010.06
2016-07-29T08:22:41.449Z,1010.06
2016-07-29T08:23:41.477Z,1010.02
2016-07-29T08:24:41.507Z,1010.03
2016-07-29T08:25:41.534Z,1010
2016-07-29T08:26:41.563Z,1009.99
2016-07-29T08:27:41.591Z,1009.95
2016-07-29T08:28:41.620Z,1009.97
2016-07-29T08:29:41.648Z,1010
2016-07-29T08:30:41.677Z,1010.03
2016-07-29T08:31:41.705Z,1010.02
2016-07-29T08:32:41.734Z,1010.03
2016-07-29T08:33:41.762Z,1010.03
2016-07-29T08:34:41.791Z,1010.04
2016-07-29T08:35:41.819Z,1010.07
2016-07-29T08:36:41.847Z,1010.04
2016-07-29T08:37:41.877Z,1010.02
2016-07-29T08:38:41.904Z,1010.04
2016-07-29T08:39:41.933Z,1010.08
2016-07-29T08:40:41.962Z,1010.05
2016-07-29T08:41:41.990Z,1010
2016-07-29T08:42:42.019Z,1010.03
2016-07-29T08:43:42.048Z,1010.01
2016-07-29T08:44:42.076Z,1010.01
2016-07-29T08:45:42.104Z,1010
2016-07-29T08:46:42.132Z,1009.97
2016-07-29T08:47:42.161Z,1009.92
2016-07-29T08:49:42.218Z,1009.94
2016-07-29T08:50:42.246Z,1009.92
2016-07-29T08:51:42.275Z,1009.92
2016-07-29T08:52:42.305Z,1009.94
2016-07-29T08:53:42.332Z,1009.92
2016-07-29T08:54:42.361Z,1009.95
2016-07-29T08:55:42.390Z,1009.98
2016-07-29T08:56:42.418Z,1009.97
2016-07-29T08:57:42.446Z,1009.95
2016-07-29T08:58:42.475Z,1009.97
2016-07-29T08:59:42.504Z,1009.96
2016-07-29T09:00:42.533Z,1009.97
2016-07-29T09:01:42.561Z,1009.94
2016-07-29T09:02:42.590Z,1009.94
2016-07-29T09:04:42.647Z,1009.93
2016-07-29T09:05:42.677Z,1009.92
2016-07-29T09:06:42.704Z,1009.89
2016-07-29T09:07:42.732Z,1009.93
2016-07-29T09:08:42.760Z,1009.91
2016-07-29T09:09:42.790Z,1009.96
2016-07-29T09:10:42.818Z,1009.97
2016-07-29T09:11:42.844Z,1009.97
2016-07-29T09:12:42.882Z,1010
2016-07-29T09:13:42.902Z,1009.99
2016-07-29T09:14:42.931Z,1010.03
2016-07-29T09:15:42.959Z,1010
2016-07-29T09:16:42.985Z,1010.02
2016-07-29T09:17:43.014Z,1009.98
2016-07-29T09:18:43.041Z,1009.95
2016-07-29T09:19:43.070Z,1009.95
2016-07-29T09:20:43.098Z,1009.93
2016-07-29T09:21:43.127Z,1009.93
2016-07-29T09:22:43.153Z,1009.93
2016-07-29T09:23:43.183Z,1009.89
2016-07-29T09:24:43.211Z,1009.92
2016-07-29T09:25:43.238Z,1009.92
2016-07-29T09:26:43.267Z,1009.9
2016-07-29T09:27:43.296Z,1009.97
2016-07-29T09:28:43.325Z,1009.93
2016-07-29T09:29:43.352Z,1009.91
2016-07-29T09:30:43.381Z,1009.93
2016-07-29T09:31:43.409Z,1009.94
2016-07-29T09:32:43.439Z,1009.96
2016-07-29T09:33:43.465Z,1010
2016-07-29T09:34:43.495Z,1009.97
2016-07-29T09:35:43.523Z,1010.03
2016-07-29T09:36:43.552Z,1009.99
2016-07-29T09:37:43.583Z,1009.93
2016-07-29T09:38:43.609Z,1010.01
2016-07-29T09:39:43.638Z,1010.01
2016-07-29T09:40:43.666Z,1009.99
2016-07-29T09:41:43.694Z,1010.04
2016-07-29T09:42:43.723Z,1010.05
2016-07-29T09:43:43.752Z,1010.01
2016-07-29T09:44:43.780Z,1010.09
2016-07-29T09:45:43.810Z,1010
2016-07-29T09:46:43.841Z,1009.98
2016-07-29T09:47:43.866Z,1010.05
2016-07-29T09:48:43.893Z,1010.01
2016-07-29T09:49:43.923Z,1010.02
2016-07-29T09:50:43.953Z,1010.02
2016-07-29T09:51:43.979Z,1010.04
2016-07-29T09:52:44.008Z,1010.05
2016-07-29T09:53:44.037Z,1010.02
2016-07-29T09:54:44.065Z,1010.05
2016-07-29T09:55:44.093Z,1010.06
2016-07-29T09:56:44.122Z,1010.14
2016-07-29T09:57:44.151Z,1010.17
2016-07-29T09:58:44.180Z,1010.19
2016-07-29T09:59:44.209Z,1010.18
2016-07-29T10:00:44.237Z,1010.14
2016-07-29T10:01:44.266Z,1010.1
2016-07-29T10:02:44.294Z,1010.07
2016-07-29T10:03:44.322Z,1010.05
2016-07-29T10:04:44.356Z,1010.01
2016-07-29T10:05:44.379Z,1009.97
2016-07-29T10:06:44.418Z,1009.97
2016-07-29T10:07:44.437Z,1010
2016-07-29T10:08:44.465Z,1010.02
2016-07-29T10:09:44.493Z,1010.01
2016-07-29T10:10:44.527Z,1009.95
2016-07-29T10:11:44.550Z,1009.97
2016-07-29T10:12:44.579Z,1009.96
2016-07-29T10:13:44.609Z,1009.92
2016-07-29T10:14:44.637Z,1009.93
2016-07-29T10:15:44.665Z,1009.95
2016-07-29T10:16:44.694Z,1009.94
2016-07-29T10:17:44.722Z,1009.94
2016-07-29T10:18:44.751Z,1009.92
2016-07-29T10:19:44.780Z,1009.89
2016-07-29T10:20:44.810Z,1009.92
2016-07-29T10:21:44.838Z,1009.92
2016-07-29T10:22:44.866Z,1009.91
2016-07-29T10:23:44.895Z,1009.91
2016-07-29T10:24:44.922Z,1009.9
2016-07-29T10:25:44.951Z,1009.86
2016-07-29T10:26:44.993Z,1009.89
2016-07-29T10:27:45.011Z,1009.82
2016-07-29T10:28:45.038Z,1009.84
2016-07-29T10:29:45.067Z,1009.79
2016-07-29T10:30:45.097Z,1009.82
2016-07-29T10:31:45.125Z,1009.81
2016-07-29T10:32:45.153Z,1009.83
2016-07-29T10:33:45.182Z,1009.8
2016-07-29T10:34:45.212Z,1009.81
2016-07-29T10:35:45.239Z,1009.82
2016-07-29T10:36:45.269Z,1009.84
2016-07-29T10:37:45.297Z,1009.82
2016-07-29T10:38:45.326Z,1009.77
2016-07-29T10:39:45.354Z,1009.78
2016-07-29T10:40:45.384Z,1009.81
2016-07-29T10:41:45.413Z,1009.8
2016-07-29T10:42:45.441Z,1009.82
2016-07-29T10:43:45.470Z,1009.79
2016-07-29T10:44:45.498Z,1009.81
2016-07-29T10:45:45.529Z,1009.82
2016-07-29T10:46:45.556Z,1009.81
2016-07-29T10:47:45.586Z,1009.83
2016-07-29T10:48:45.615Z,1009.84
2016-07-29T10:49:45.644Z,1009.8
2016-07-29T10:50:45.671Z,1009.79
2016-07-29T10:51:45.700Z,1009.78
2016-07-29T10:52:45.730Z,1009.77
2016-07-29T10:53:45.759Z,1009.77
2016-07-29T10:54:45.787Z,1009.79
2016-07-29T10:55:45.817Z,1009.8
2016-07-29T10:56:45.846Z,1009.78
2016-07-29T10:57:45.875Z,1009.82
2016-07-29T10:58:45.904Z,1009.81
2016-07-29T10:59:45.933Z,1009.77
2016-07-29T11:00:45.963Z,1009.78
2016-07-29T11:01:45.991Z,1009.81
2016-07-29T11:02:46.021Z,1009.79
2016-07-29T11:03:46.049Z,1009.77
2016-07-29T11:04:46.078Z,1009.81
2016-07-29T11:05:46.108Z,1009.82
2016-07-29T11:06:46.136Z,1009.79
2016-07-29T11:07:46.166Z,1009.77
2016-07-29T11:08:46.194Z,1009.78
2016-07-29T11:09:46.224Z,1009.77
2016-07-29T11:10:46.253Z,1009.77
2016-07-29T11:11:46.282Z,1009.77
2016-07-29T11:12:46.310Z,1009.77
2016-07-29T11:13:46.339Z,1009.78
2016-07-29T11:14:46.369Z,1009.81
2016-07-29T11:15:46.397Z,1009.82
2016-07-29T11:16:46.427Z,1009.7
2016-07-29T11:17:46.457Z,1009.77
2016-07-29T11:18:46.484Z,1009.69
2016-07-29T11:19:46.513Z,1009.68
2016-07-29T11:20:46.542Z,1009.72
2016-07-29T11:21:46.571Z,1009.69
2016-07-29T11:22:46.600Z,1009.66
2016-07-29T11:23:46.628Z,1009.66
2016-07-29T11:24:46.658Z,1009.62
2016-07-29T11:25:46.687Z,1009.63
2016-07-29T11:26:46.716Z,1009.64
2016-07-29T11:27:46.745Z,1009.62
2016-07-29T11:28:46.774Z,1009.61
2016-07-29T11:29:46.804Z,1009.64
2016-07-29T11:30:46.832Z,1009.59
2016-07-29T11:31:46.861Z,1009.62
2016-07-29T11:32:46.889Z,1009.62
2016-07-29T11:33:46.920Z,1009.58
2016-07-29T11:34:46.952Z,1009.6
2016-07-29T11:35:46.979Z,1009.56
2016-07-29T11:36:47.007Z,1009.53
2016-07-29T11:37:47.037Z,1009.56
2016-07-29T11:38:47.066Z,1009.56
2016-07-29T11:39:47.095Z,1009.6
2016-07-29T11:40:47.124Z,1009.56
2016-07-29T11:41:47.153Z,1009.54
2016-07-29T11:42:47.182Z,1009.52
2016-07-29T11:43:47.211Z,1009.54
2016-07-29T11:44:47.240Z,1009.53
2016-07-29T11:45:47.269Z,1009.51
2016-07-29T11:46:47.299Z,1009.5
2016-07-29T11:47:47.327Z,1009.56
2016-07-29T11:48:47.356Z,1009.54
2016-07-29T11:49:47.384Z,1009.54
2016-07-29T11:50:47.415Z,1009.53
2016-07-29T11:51:47.443Z,1009.55
2016-07-29T11:52:47.472Z,1009.46
2016-07-29T11:53:47.502Z,1009.48
2016-07-29T11:54:47.532Z,1009.46
2016-07-29T11:55:47.559Z,1009.46
2016-07-29T11:56:47.591Z,1009.5
2016-07-29T11:57:47.625Z,1009.49
2016-07-29T11:58:47.648Z,1009.48
2016-07-29T11:59:47.676Z,1009.47
2016-07-29T12:00:47.705Z,1009.49
2016-07-29T12:01:47.735Z,1009.45
2016-07-29T12:02:47.764Z,1009.48
2016-07-29T12:03:47.793Z,1009.48
2016-07-29T12:04:47.822Z,1009.52
2016-07-29T12:05:47.852Z,1009.43
2016-07-29T12:06:47.880Z,1009.48
2016-07-29T12:07:47.908Z,1009.42
2016-07-29T12:08:47.938Z,1009.47
2016-07-29T12:09:47.968Z,1009.48
2016-07-29T12:10:47.996Z,1009.49
2016-07-29T12:11:48.026Z,1009.56
2016-07-29T12:12:48.055Z,1009.53
2016-07-29T12:13:48.084Z,1009.44
2016-07-29T12:14:48.113Z,1009.47
2016-07-29T12:15:48.142Z,1009.48